sensor_id;sensor_type;location;lat;lon;timestamp;P1;durP1;ratioP1;P2;durP2;ratioP2
12476;SDS011;6303;51.504;6.300;2022-12-10T00:01:08;3.60;;;2.72;;
12476;SDS011;6303;51.504;6.300;2022-12-10T00:03:36;2.97;;;2.63;;
12476;SDS011;6303;51.504;6.300;2022-12-10T00:06:05;3.08;;;2.70;;
12476;SDS011;6303;51.504;6.300;2022-12-10T00:08:33;4.38;;;2.80;;
12476;SDS011;6303;51.504;6.300;2022-12-10T00:11:02;3.42;;;2.55;;
12476;SDS011;6303;51.504;6.300;2022-12-10T00:13:29;2.60;;;2.40;;
12476;SDS011;6303;51.504;6.300;2022-12-10T00:15:58;3.42;;;2.35;;
12476;SDS011;6303;51.504;6.300;2022-12-10T00:18:25;2.67;;;2.47;;
12476;SDS011;6303;51.504;6.300;2022-12-10T00:20:52;2.58;;;2.38;;
12476;SDS011;6303;51.504;6.300;2022-12-10T00:23:21;4.15;;;2.75;;
12476;SDS011;6303;51.504;6.300;2022-12-10T00:25:48;3.15;;;2.70;;
12476;SDS011;6303;51.504;6.300;2022-12-10T00:28:15;2.60;;;2.40;;
12476;SDS011;6303;51.504;6.300;2022-12-10T00:30:42;2.67;;;2.47;;
12476;SDS011;6303;51.504;6.300;2022-12-10T00:33:11;3.35;;;3.05;;
12476;SDS011;6303;51.504;6.300;2022-12-10T00:35:38;2.92;;;2.72;;
12476;SDS011;6303;51.504;6.300;2022-12-10T00:38:05;2.92;;;2.72;;
12476;SDS011;6303;51.504;6.300;2022-12-10T00:40:33;3.83;;;2.90;;
12476;SDS011;6303;51.504;6.300;2022-12-10T00:43:00;2.70;;;2.50;;
12476;SDS011;6303;51.504;6.300;2022-12-10T00:45:27;4.40;;;3.10;;
12476;SDS011;6303;51.504;6.300;2022-12-10T00:47:55;3.53;;;2.60;;
12476;SDS011;6303;51.504;6.300;2022-12-10T00:50:23;2.70;;;2.50;;
12476;SDS011;6303;51.504;6.300;2022-12-10T00:52:50;2.97;;;2.67;;
12476;SDS011;6303;51.504;6.300;2022-12-10T00:55:17;3.75;;;2.88;;
12476;SDS011;6303;51.504;6.300;2022-12-10T00:57:45;3.15;;;2.80;;
12476;SDS011;6303;51.504;6.300;2022-12-10T01:00:13;2.90;;;2.70;;
12476;SDS011;6303;51.504;6.300;2022-12-10T01:02:40;4.03;;;2.92;;
12476;SDS011;6303;51.504;6.300;2022-12-10T01:05:07;3.28;;;2.95;;
12476;SDS011;6303;51.504;6.300;2022-12-10T01:07:34;3.25;;;2.95;;
12476;SDS011;6303;51.504;6.300;2022-12-10T01:10:01;3.47;;;2.95;;
12476;SDS011;6303;51.504;6.300;2022-12-10T01:12:29;3.40;;;3.10;;
12476;SDS011;6303;51.504;6.300;2022-12-10T01:14:57;3.40;;;2.83;;
12476;SDS011;6303;51.504;6.300;2022-12-10T01:17:24;3.00;;;2.72;;
12476;SDS011;6303;51.504;6.300;2022-12-10T01:19:51;3.30;;;2.80;;
12476;SDS011;6303;51.504;6.300;2022-12-10T01:22:19;3.55;;;3.10;;
12476;SDS011;6303;51.504;6.300;2022-12-10T01:24:46;3.75;;;3.15;;
12476;SDS011;6303;51.504;6.300;2022-12-10T01:27:13;3.30;;;3.00;;
12476;SDS011;6303;51.504;6.300;2022-12-10T01:29:40;3.55;;;3.17;;
12476;SDS011;6303;51.504;6.300;2022-12-10T01:32:08;4.10;;;3.05;;
12476;SDS011;6303;51.504;6.300;2022-12-10T01:34:37;3.40;;;3.10;;
12476;SDS011;6303;51.504;6.300;2022-12-10T01:37:04;3.50;;;3.05;;
12476;SDS011;6303;51.504;6.300;2022-12-10T01:39:31;3.40;;;3.10;;
12476;SDS011;6303;51.504;6.300;2022-12-10T01:41:59;3.55;;;2.90;;
12476;SDS011;6303;51.504;6.300;2022-12-10T01:47:28;3.25;;;2.90;;
12476;SDS011;6303;51.504;6.300;2022-12-10T01:49:57;3.35;;;3.05;;
12476;SDS011;6303;51.504;6.300;2022-12-10T01:52:26;3.90;;;3.50;;
12476;SDS011;6303;51.504;6.300;2022-12-10T01:54:54;3.97;;;2.88;;
12476;SDS011;6303;51.504;6.300;2022-12-10T01:57:22;3.78;;;3.33;;
12476;SDS011;6303;51.504;6.300;2022-12-10T01:59:52;3.78;;;3.35;;
12476;SDS011;6303;51.504;6.300;2022-12-10T02:02:28;3.88;;;3.10;;
12476;SDS011;6303;51.504;6.300;2022-12-10T02:05:09;4.05;;;3.30;;
12476;SDS011;6303;51.504;6.300;2022-12-10T02:07:57;5.15;;;3.33;;
12476;SDS011;6303;51.504;6.300;2022-12-10T02:10:35;3.65;;;3.20;;
12476;SDS011;6303;51.504;6.300;2022-12-10T02:13:10;3.53;;;3.20;;
12476;SDS011;6303;51.504;6.300;2022-12-10T02:15:44;3.67;;;3.20;;
12476;SDS011;6303;51.504;6.300;2022-12-10T02:18:20;3.58;;;3.28;;
12476;SDS011;6303;51.504;6.300;2022-12-10T02:20:52;3.38;;;3.08;;
12476;SDS011;6303;51.504;6.300;2022-12-10T02:23:23;3.65;;;3.03;;
12476;SDS011;6303;51.504;6.300;2022-12-10T02:25:54;4.03;;;3.55;;
12476;SDS011;6303;51.504;6.300;2022-12-10T02:28:30;4.03;;;3.47;;
12476;SDS011;6303;51.504;6.300;2022-12-10T02:31:06;3.60;;;3.30;;
12476;SDS011;6303;51.504;6.300;2022-12-10T02:33:39;4.20;;;3.80;;
12476;SDS011;6303;51.504;6.300;2022-12-10T02:36:10;4.22;;;3.58;;
12476;SDS011;6303;51.504;6.300;2022-12-10T02:38:41;4.80;;;3.60;;
12476;SDS011;6303;51.504;6.300;2022-12-10T02:41:12;3.78;;;3.17;;
12476;SDS011;6303;51.504;6.300;2022-12-10T02:43:43;3.60;;;3.30;;
12476;SDS011;6303;51.504;6.300;2022-12-10T02:46:13;3.83;;;3.42;;
12476;SDS011;6303;51.504;6.300;2022-12-10T02:48:41;4.63;;;3.63;;
12476;SDS011;6303;51.504;6.300;2022-12-10T02:51:08;3.85;;;3.47;;
12476;SDS011;6303;51.504;6.300;2022-12-10T02:53:40;4.03;;;3.45;;
12476;SDS011;6303;51.504;6.300;2022-12-10T02:56:12;4.18;;;3.75;;
12476;SDS011;6303;51.504;6.300;2022-12-10T02:58:47;4.60;;;3.75;;
12476;SDS011;6303;51.504;6.300;2022-12-10T03:01:28;3.78;;;3.47;;
12476;SDS011;6303;51.504;6.300;2022-12-10T03:04:07;4.57;;;4.13;;
12476;SDS011;6303;51.504;6.300;2022-12-10T03:06:40;4.30;;;3.65;;
12476;SDS011;6303;51.504;6.300;2022-12-10T03:09:12;4.95;;;3.90;;
12476;SDS011;6303;51.504;6.300;2022-12-10T03:11:43;4.25;;;3.85;;
12476;SDS011;6303;51.504;6.300;2022-12-10T03:14:13;4.53;;;4.13;;
12476;SDS011;6303;51.504;6.300;2022-12-10T03:16:45;5.05;;;3.78;;
12476;SDS011;6303;51.504;6.300;2022-12-10T03:19:18;4.00;;;3.60;;
12476;SDS011;6303;51.504;6.300;2022-12-10T03:21:49;5.07;;;3.65;;
12476;SDS011;6303;51.504;6.300;2022-12-10T03:24:21;4.30;;;3.70;;
12476;SDS011;6303;51.504;6.300;2022-12-10T03:26:51;4.18;;;3.65;;
12476;SDS011;6303;51.504;6.300;2022-12-10T03:29:19;4.75;;;3.78;;
12476;SDS011;6303;51.504;6.300;2022-12-10T03:31:53;3.95;;;3.33;;
12476;SDS011;6303;51.504;6.300;2022-12-10T03:34:22;4.28;;;3.70;;
12476;SDS011;6303;51.504;6.300;2022-12-10T03:36:49;3.80;;;3.50;;
12476;SDS011;6303;51.504;6.300;2022-12-10T03:39:17;5.03;;;3.88;;
12476;SDS011;6303;51.504;6.300;2022-12-10T03:41:44;4.15;;;3.75;;
12476;SDS011;6303;51.504;6.300;2022-12-10T03:44:12;4.72;;;3.63;;
12476;SDS011;6303;51.504;6.300;2022-12-10T03:46:39;4.00;;;3.58;;
12476;SDS011;6303;51.504;6.300;2022-12-10T03:49:07;4.07;;;3.67;;
12476;SDS011;6303;51.504;6.300;2022-12-10T03:51:35;4.30;;;3.65;;
12476;SDS011;6303;51.504;6.300;2022-12-10T03:54:03;4.40;;;4.00;;
12476;SDS011;6303;51.504;6.300;2022-12-10T03:56:30;4.20;;;3.80;;
12476;SDS011;6303;51.504;6.300;2022-12-10T03:58:57;4.40;;;4.00;;
12476;SDS011;6303;51.504;6.300;2022-12-10T04:01:24;4.45;;;3.80;;
12476;SDS011;6303;51.504;6.300;2022-12-10T04:03:51;4.55;;;3.75;;
12476;SDS011;6303;51.504;6.300;2022-12-10T04:06:19;4.13;;;3.72;;
12476;SDS011;6303;51.504;6.300;2022-12-10T04:08:47;4.35;;;3.95;;
12476;SDS011;6303;51.504;6.300;2022-12-10T04:11:15;4.82;;;4.38;;
12476;SDS011;6303;51.504;6.300;2022-12-10T04:13:42;4.97;;;4.07;;
12476;SDS011;6303;51.504;6.300;2022-12-10T04:16:27;4.20;;;3.80;;
12476;SDS011;6303;51.504;6.300;2022-12-10T04:18:56;4.30;;;3.90;;
12476;SDS011;6303;51.504;6.300;2022-12-10T04:21:26;4.70;;;3.90;;
12476;SDS011;6303;51.504;6.300;2022-12-10T04:24:27;4.35;;;3.92;;
12476;SDS011;6303;51.504;6.300;2022-12-10T04:27:15;5.43;;;4.10;;
12476;SDS011;6303;51.504;6.300;2022-12-10T04:29:44;4.47;;;3.95;;
12476;SDS011;6303;51.504;6.300;2022-12-10T04:32:11;4.68;;;4.00;;
12476;SDS011;6303;51.504;6.300;2022-12-10T04:34:39;4.45;;;4.05;;
12476;SDS011;6303;51.504;6.300;2022-12-10T04:37:07;4.72;;;4.25;;
12476;SDS011;6303;51.504;6.300;2022-12-10T04:39:36;4.57;;;4.15;;
12476;SDS011;6303;51.504;6.300;2022-12-10T04:42:03;4.90;;;4.40;;
12476;SDS011;6303;51.504;6.300;2022-12-10T04:44:30;4.57;;;4.18;;
12476;SDS011;6303;51.504;6.300;2022-12-10T04:46:57;4.57;;;4.18;;
12476;SDS011;6303;51.504;6.300;2022-12-10T04:49:24;5.20;;;4.35;;
12476;SDS011;6303;51.504;6.300;2022-12-10T04:51:52;4.72;;;4.28;;
12476;SDS011;6303;51.504;6.300;2022-12-10T04:54:21;4.82;;;4.25;;
12476;SDS011;6303;51.504;6.300;2022-12-10T04:56:49;4.93;;;4.45;;
12476;SDS011;6303;51.504;6.300;2022-12-10T04:59:17;4.43;;;4.00;;
12476;SDS011;6303;51.504;6.300;2022-12-10T05:01:44;5.47;;;4.63;;
12476;SDS011;6303;51.504;6.300;2022-12-10T05:04:13;5.65;;;4.20;;
12476;SDS011;6303;51.504;6.300;2022-12-10T05:06:40;4.63;;;4.20;;
12476;SDS011;6303;51.504;6.300;2022-12-10T05:09:09;5.60;;;4.38;;
12476;SDS011;6303;51.504;6.300;2022-12-10T05:11:38;4.90;;;4.40;;
12476;SDS011;6303;51.504;6.300;2022-12-10T05:14:06;4.80;;;4.03;;
12476;SDS011;6303;51.504;6.300;2022-12-10T05:16:35;5.25;;;4.60;;
12476;SDS011;6303;51.504;6.300;2022-12-10T05:19:02;5.55;;;4.55;;
12476;SDS011;6303;51.504;6.300;2022-12-10T05:21:29;5.05;;;4.40;;
12476;SDS011;6303;51.504;6.300;2022-12-10T05:24:10;4.70;;;4.20;;
12476;SDS011;6303;51.504;6.300;2022-12-10T05:26:39;4.90;;;4.40;;
12476;SDS011;6303;51.504;6.300;2022-12-10T05:29:07;5.20;;;4.32;;
12476;SDS011;6303;51.504;6.300;2022-12-10T05:31:34;5.68;;;4.45;;
12476;SDS011;6303;51.504;6.300;2022-12-10T05:34:02;5.30;;;4.80;;
12476;SDS011;6303;51.504;6.300;2022-12-10T05:36:30;4.50;;;4.10;;
12476;SDS011;6303;51.504;6.300;2022-12-10T05:38:58;5.75;;;5.10;;
12476;SDS011;6303;51.504;6.300;2022-12-10T05:41:26;5.43;;;4.65;;
12476;SDS011;6303;51.504;6.300;2022-12-10T05:43:56;6.05;;;4.68;;
12476;SDS011;6303;51.504;6.300;2022-12-10T05:46:24;5.32;;;4.82;;
12476;SDS011;6303;51.504;6.300;2022-12-10T05:48:52;5.63;;;5.03;;
12476;SDS011;6303;51.504;6.300;2022-12-10T05:51:20;5.90;;;5.30;;
12476;SDS011;6303;51.504;6.300;2022-12-10T05:53:49;5.60;;;5.00;;
12476;SDS011;6303;51.504;6.300;2022-12-10T05:56:18;5.88;;;5.13;;
12476;SDS011;6303;51.504;6.300;2022-12-10T05:58:48;5.90;;;5.30;;
12476;SDS011;6303;51.504;6.300;2022-12-10T06:01:18;5.78;;;4.82;;
12476;SDS011;6303;51.504;6.300;2022-12-10T06:03:47;5.55;;;4.97;;
12476;SDS011;6303;51.504;6.300;2022-12-10T06:06:20;5.68;;;4.90;;
12476;SDS011;6303;51.504;6.300;2022-12-10T06:08:48;6.72;;;5.68;;
12476;SDS011;6303;51.504;6.300;2022-12-10T06:11:16;6.78;;;5.70;;
12476;SDS011;6303;51.504;6.300;2022-12-10T06:13:43;7.20;;;5.75;;
12476;SDS011;6303;51.504;6.300;2022-12-10T06:16:11;6.90;;;6.15;;
12476;SDS011;6303;51.504;6.300;2022-12-10T06:18:41;7.03;;;6.30;;
12476;SDS011;6303;51.504;6.300;2022-12-10T06:21:10;6.53;;;5.57;;
12476;SDS011;6303;51.504;6.300;2022-12-10T06:23:39;6.35;;;5.75;;
12476;SDS011;6303;51.504;6.300;2022-12-10T06:26:07;6.30;;;5.40;;
12476;SDS011;6303;51.504;6.300;2022-12-10T06:28:35;5.93;;;5.32;;
12476;SDS011;6303;51.504;6.300;2022-12-10T06:31:03;6.88;;;6.07;;
12476;SDS011;6303;51.504;6.300;2022-12-10T06:33:31;6.90;;;6.07;;
12476;SDS011;6303;51.504;6.300;2022-12-10T06:35:59;6.70;;;5.78;;
12476;SDS011;6303;51.504;6.300;2022-12-10T06:38:29;8.27;;;6.10;;
12476;SDS011;6303;51.504;6.300;2022-12-10T06:40:56;6.82;;;5.40;;
12476;SDS011;6303;51.504;6.300;2022-12-10T06:43:23;6.57;;;5.72;;
12476;SDS011;6303;51.504;6.300;2022-12-10T06:45:50;7.47;;;5.70;;
12476;SDS011;6303;51.504;6.300;2022-12-10T06:48:17;6.88;;;6.13;;
12476;SDS011;6303;51.504;6.300;2022-12-10T06:50:44;6.50;;;5.70;;
12476;SDS011;6303;51.504;6.300;2022-12-10T06:53:12;7.13;;;5.93;;
12476;SDS011;6303;51.504;6.300;2022-12-10T06:55:39;7.22;;;6.05;;
12476;SDS011;6303;51.504;6.300;2022-12-10T06:58:06;6.82;;;6.00;;
12476;SDS011;6303;51.504;6.300;2022-12-10T07:00:33;6.85;;;5.93;;
12476;SDS011;6303;51.504;6.300;2022-12-10T07:03:00;6.95;;;5.60;;
12476;SDS011;6303;51.504;6.300;2022-12-10T07:05:27;7.40;;;6.18;;
12476;SDS011;6303;51.504;6.300;2022-12-10T07:07:54;6.90;;;5.78;;
12476;SDS011;6303;51.504;6.300;2022-12-10T07:10:23;6.13;;;5.40;;
12476;SDS011;6303;51.504;6.300;2022-12-10T07:12:50;6.97;;;5.82;;
12476;SDS011;6303;51.504;6.300;2022-12-10T07:15:17;7.63;;;6.10;;
12476;SDS011;6303;51.504;6.300;2022-12-10T07:17:44;6.45;;;5.65;;
12476;SDS011;6303;51.504;6.300;2022-12-10T07:20:11;7.68;;;5.40;;
12476;SDS011;6303;51.504;6.300;2022-12-10T07:22:38;6.70;;;5.63;;
12476;SDS011;6303;51.504;6.300;2022-12-10T07:25:05;7.55;;;6.68;;
12476;SDS011;6303;51.504;6.300;2022-12-10T07:27:35;8.13;;;6.70;;
12476;SDS011;6303;51.504;6.300;2022-12-10T07:30:02;8.23;;;6.30;;
12476;SDS011;6303;51.504;6.300;2022-12-10T07:32:30;7.65;;;6.53;;
12476;SDS011;6303;51.504;6.300;2022-12-10T07:34:57;6.78;;;5.75;;
12476;SDS011;6303;51.504;6.300;2022-12-10T07:37:24;7.15;;;6.00;;
12476;SDS011;6303;51.504;6.300;2022-12-10T07:39:51;7.55;;;5.68;;
12476;SDS011;6303;51.504;6.300;2022-12-10T07:42:18;6.70;;;5.57;;
12476;SDS011;6303;51.504;6.300;2022-12-10T07:44:47;6.45;;;5.70;;
12476;SDS011;6303;51.504;6.300;2022-12-10T07:47:14;8.45;;;5.40;;
12476;SDS011;6303;51.504;6.300;2022-12-10T07:49:41;7.32;;;6.03;;
12476;SDS011;6303;51.504;6.300;2022-12-10T07:52:08;8.07;;;6.38;;
12476;SDS011;6303;51.504;6.300;2022-12-10T07:54:35;7.68;;;6.20;;
12476;SDS011;6303;51.504;6.300;2022-12-10T07:57:02;7.35;;;6.03;;
12476;SDS011;6303;51.504;6.300;2022-12-10T07:59:29;8.40;;;6.70;;
12476;SDS011;6303;51.504;6.300;2022-12-10T08:01:58;7.15;;;6.32;;
12476;SDS011;6303;51.504;6.300;2022-12-10T08:04:27;7.68;;;6.55;;
12476;SDS011;6303;51.504;6.300;2022-12-10T08:06:55;7.55;;;6.45;;
12476;SDS011;6303;51.504;6.300;2022-12-10T08:09:22;7.30;;;6.22;;
12476;SDS011;6303;51.504;6.300;2022-12-10T08:11:49;6.53;;;5.82;;
12476;SDS011;6303;51.504;6.300;2022-12-10T08:14:16;6.90;;;6.18;;
12476;SDS011;6303;51.504;6.300;2022-12-10T08:16:43;6.75;;;5.80;;
12476;SDS011;6303;51.504;6.300;2022-12-10T08:19:11;6.22;;;5.63;;
12476;SDS011;6303;51.504;6.300;2022-12-10T08:21:38;6.25;;;5.63;;
12476;SDS011;6303;51.504;6.300;2022-12-10T08:24:05;6.22;;;5.63;;
12476;SDS011;6303;51.504;6.300;2022-12-10T08:26:33;6.20;;;5.60;;
12476;SDS011;6303;51.504;6.300;2022-12-10T08:29:00;6.22;;;5.57;;
12476;SDS011;6303;51.504;6.300;2022-12-10T08:31:28;6.25;;;5.30;;
12476;SDS011;6303;51.504;6.300;2022-12-10T08:33:56;5.90;;;5.30;;
12476;SDS011;6303;51.504;6.300;2022-12-10T08:36:24;6.60;;;5.65;;
12476;SDS011;6303;51.504;6.300;2022-12-10T08:38:51;5.72;;;5.13;;
12476;SDS011;6303;51.504;6.300;2022-12-10T08:41:20;6.20;;;5.60;;
12476;SDS011;6303;51.504;6.300;2022-12-10T08:43:50;6.30;;;5.57;;
12476;SDS011;6303;51.504;6.300;2022-12-10T08:46:19;6.45;;;5.60;;
12476;SDS011;6303;51.504;6.300;2022-12-10T08:48:46;6.55;;;5.80;;
12476;SDS011;6303;51.504;6.300;2022-12-10T08:51:14;6.20;;;5.60;;
12476;SDS011;6303;51.504;6.300;2022-12-10T08:53:44;5.80;;;5.20;;
12476;SDS011;6303;51.504;6.300;2022-12-10T08:56:11;6.18;;;5.57;;
12476;SDS011;6303;51.504;6.300;2022-12-10T08:58:39;6.45;;;5.75;;
12476;SDS011;6303;51.504;6.300;2022-12-10T09:01:07;7.55;;;5.72;;
12476;SDS011;6303;51.504;6.300;2022-12-10T09:03:34;6.57;;;5.60;;
12476;SDS011;6303;51.504;6.300;2022-12-10T09:06:03;6.47;;;5.70;;
12476;SDS011;6303;51.504;6.300;2022-12-10T09:08:31;8.07;;;5.85;;
12476;SDS011;6303;51.504;6.300;2022-12-10T09:11:05;6.50;;;5.78;;
12476;SDS011;6303;51.504;6.300;2022-12-10T09:13:33;7.38;;;6.28;;
12476;SDS011;6303;51.504;6.300;2022-12-10T09:16:01;7.72;;;6.30;;
12476;SDS011;6303;51.504;6.300;2022-12-10T09:18:28;6.97;;;6.18;;
12476;SDS011;6303;51.504;6.300;2022-12-10T09:20:55;7.53;;;6.72;;
12476;SDS011;6303;51.504;6.300;2022-12-10T09:23:22;7.10;;;5.60;;
12476;SDS011;6303;51.504;6.300;2022-12-10T09:25:50;8.18;;;6.07;;
12476;SDS011;6303;51.504;6.300;2022-12-10T09:28:18;8.15;;;6.20;;
12476;SDS011;6303;51.504;6.300;2022-12-10T09:30:45;7.95;;;6.05;;
12476;SDS011;6303;51.504;6.300;2022-12-10T09:33:21;7.05;;;5.72;;
12476;SDS011;6303;51.504;6.300;2022-12-10T09:35:48;6.65;;;5.95;;
12476;SDS011;6303;51.504;6.300;2022-12-10T09:38:15;6.82;;;6.00;;
12476;SDS011;6303;51.504;6.300;2022-12-10T09:40:43;7.03;;;6.22;;
12476;SDS011;6303;51.504;6.300;2022-12-10T09:43:19;7.00;;;6.28;;
12476;SDS011;6303;51.504;6.300;2022-12-10T09:45:54;8.07;;;6.72;;
12476;SDS011;6303;51.504;6.300;2022-12-10T09:48:32;7.45;;;6.15;;
12476;SDS011;6303;51.504;6.300;2022-12-10T09:51:08;8.68;;;6.30;;
12476;SDS011;6303;51.504;6.300;2022-12-10T09:53:39;8.57;;;6.45;;
12476;SDS011;6303;51.504;6.300;2022-12-10T09:56:10;6.90;;;6.15;;
12476;SDS011;6303;51.504;6.300;2022-12-10T09:58:49;8.90;;;6.88;;
12476;SDS011;6303;51.504;6.300;2022-12-10T10:01:17;8.48;;;6.72;;
12476;SDS011;6303;51.504;6.300;2022-12-10T10:03:47;8.63;;;6.35;;
12476;SDS011;6303;51.504;6.300;2022-12-10T10:06:15;9.35;;;6.57;;
12476;SDS011;6303;51.504;6.300;2022-12-10T10:08:43;7.70;;;6.78;;
12476;SDS011;6303;51.504;6.300;2022-12-10T10:11:14;8.43;;;6.88;;
12476;SDS011;6303;51.504;6.300;2022-12-10T10:13:47;8.55;;;7.35;;
12476;SDS011;6303;51.504;6.300;2022-12-10T10:16:20;8.73;;;7.20;;
12476;SDS011;6303;51.504;6.300;2022-12-10T10:18:51;8.60;;;6.90;;
12476;SDS011;6303;51.504;6.300;2022-12-10T10:21:23;8.20;;;7.13;;
12476;SDS011;6303;51.504;6.300;2022-12-10T10:23:51;9.35;;;7.00;;
12476;SDS011;6303;51.504;6.300;2022-12-10T10:26:19;8.25;;;6.53;;
12476;SDS011;6303;51.504;6.300;2022-12-10T10:28:46;9.02;;;7.00;;
12476;SDS011;6303;51.504;6.300;2022-12-10T10:31:20;7.63;;;6.80;;
12476;SDS011;6303;51.504;6.300;2022-12-10T10:33:51;9.02;;;6.55;;
12476;SDS011;6303;51.504;6.300;2022-12-10T10:36:25;8.07;;;6.82;;
12476;SDS011;6303;51.504;6.300;2022-12-10T10:38:54;8.77;;;6.47;;
12476;SDS011;6303;51.504;6.300;2022-12-10T10:41:22;7.72;;;6.82;;
12476;SDS011;6303;51.504;6.300;2022-12-10T10:43:51;8.80;;;6.60;;
12476;SDS011;6303;51.504;6.300;2022-12-10T10:46:26;7.93;;;6.57;;
12476;SDS011;6303;51.504;6.300;2022-12-10T10:48:53;7.78;;;6.38;;
12476;SDS011;6303;51.504;6.300;2022-12-10T10:51:41;8.38;;;6.85;;
12476;SDS011;6303;51.504;6.300;2022-12-10T10:54:10;8.48;;;7.32;;
12476;SDS011;6303;51.504;6.300;2022-12-10T10:56:40;7.70;;;6.75;;
12476;SDS011;6303;51.504;6.300;2022-12-10T10:59:19;8.13;;;7.15;;
12476;SDS011;6303;51.504;6.300;2022-12-10T11:01:58;8.93;;;7.10;;
12476;SDS011;6303;51.504;6.300;2022-12-10T11:04:28;8.30;;;7.07;;
12476;SDS011;6303;51.504;6.300;2022-12-10T11:06:59;9.35;;;6.95;;
12476;SDS011;6303;51.504;6.300;2022-12-10T11:09:29;7.63;;;6.82;;
12476;SDS011;6303;51.504;6.300;2022-12-10T11:11:58;8.93;;;6.75;;
12476;SDS011;6303;51.504;6.300;2022-12-10T11:14:29;8.02;;;6.25;;
12476;SDS011;6303;51.504;6.300;2022-12-10T11:17:03;7.07;;;6.38;;
12476;SDS011;6303;51.504;6.300;2022-12-10T11:19:45;7.57;;;6.55;;
12476;SDS011;6303;51.504;6.300;2022-12-10T11:22:21;8.65;;;6.85;;
12476;SDS011;6303;51.504;6.300;2022-12-10T11:24:50;7.03;;;6.30;;
12476;SDS011;6303;51.504;6.300;2022-12-10T11:27:18;10.20;;;6.95;;
12476;SDS011;6303;51.504;6.300;2022-12-10T11:29:57;10.13;;;7.30;;
12476;SDS011;6303;51.504;6.300;2022-12-10T11:32:36;8.43;;;6.75;;
12476;SDS011;6303;51.504;6.300;2022-12-10T11:35:11;8.32;;;6.80;;
12476;SDS011;6303;51.504;6.300;2022-12-10T11:37:44;8.23;;;6.35;;
12476;SDS011;6303;51.504;6.300;2022-12-10T11:40:21;8.38;;;6.28;;
12476;SDS011;6303;51.504;6.300;2022-12-10T11:42:59;8.00;;;6.88;;
12476;SDS011;6303;51.504;6.300;2022-12-10T11:45:40;8.15;;;7.07;;
12476;SDS011;6303;51.504;6.300;2022-12-10T11:48:19;7.55;;;6.63;;
12476;SDS011;6303;51.504;6.300;2022-12-10T11:50:57;7.07;;;6.32;;
12476;SDS011;6303;51.504;6.300;2022-12-10T11:53:35;7.65;;;6.70;;
12476;SDS011;6303;51.504;6.300;2022-12-10T11:56:16;8.27;;;6.63;;
12476;SDS011;6303;51.504;6.300;2022-12-10T11:58:53;8.43;;;7.05;;
12476;SDS011;6303;51.504;6.300;2022-12-10T12:01:34;7.28;;;6.00;;
12476;SDS011;6303;51.504;6.300;2022-12-10T12:04:30;7.25;;;6.38;;
12476;SDS011;6303;51.504;6.300;2022-12-10T12:07:13;7.45;;;6.20;;
12476;SDS011;6303;51.504;6.300;2022-12-10T12:09:55;8.82;;;6.78;;
12476;SDS011;6303;51.504;6.300;2022-12-10T12:12:52;9.07;;;6.57;;
12476;SDS011;6303;51.504;6.300;2022-12-10T12:15:26;7.07;;;6.38;;
12476;SDS011;6303;51.504;6.300;2022-12-10T12:17:57;9.95;;;7.00;;
12476;SDS011;6303;51.504;6.300;2022-12-10T12:20:30;8.25;;;6.47;;
12476;SDS011;6303;51.504;6.300;2022-12-10T12:23:02;7.28;;;5.88;;
12476;SDS011;6303;51.504;6.300;2022-12-10T12:25:34;7.45;;;6.22;;
12476;SDS011;6303;51.504;6.300;2022-12-10T12:28:06;8.07;;;6.45;;
12476;SDS011;6303;51.504;6.300;2022-12-10T12:30:40;8.57;;;6.18;;
12476;SDS011;6303;51.504;6.300;2022-12-10T12:33:11;7.80;;;6.50;;
12476;SDS011;6303;51.504;6.300;2022-12-10T12:35:47;7.60;;;6.65;;
12476;SDS011;6303;51.504;6.300;2022-12-10T12:38:25;7.28;;;6.43;;
12476;SDS011;6303;51.504;6.300;2022-12-10T12:40:56;7.15;;;6.15;;
12476;SDS011;6303;51.504;6.300;2022-12-10T12:43:32;7.93;;;6.20;;
12476;SDS011;6303;51.504;6.300;2022-12-10T12:46:09;6.85;;;6.15;;
12476;SDS011;6303;51.504;6.300;2022-12-10T12:48:41;7.50;;;6.53;;
12476;SDS011;6303;51.504;6.300;2022-12-10T12:51:18;8.30;;;6.10;;
12476;SDS011;6303;51.504;6.300;2022-12-10T12:53:49;8.25;;;6.38;;
12476;SDS011;6303;51.504;6.300;2022-12-10T12:56:19;8.88;;;6.90;;
12476;SDS011;6303;51.504;6.300;2022-12-10T12:58:55;9.60;;;6.90;;
12476;SDS011;6303;51.504;6.300;2022-12-10T13:01:31;7.55;;;6.32;;
12476;SDS011;6303;51.504;6.300;2022-12-10T13:04:03;8.18;;;5.80;;
12476;SDS011;6303;51.504;6.300;2022-12-10T13:06:33;7.95;;;6.38;;
12476;SDS011;6303;51.504;6.300;2022-12-10T13:09:24;7.68;;;6.80;;
12476;SDS011;6303;51.504;6.300;2022-12-10T13:14:56;9.43;;;6.70;;
12476;SDS011;6303;51.504;6.300;2022-12-10T13:17:32;8.75;;;6.43;;
12476;SDS011;6303;51.504;6.300;2022-12-10T13:23:01;8.40;;;6.65;;
12476;SDS011;6303;51.504;6.300;2022-12-10T13:25:39;8.07;;;6.45;;
12476;SDS011;6303;51.504;6.300;2022-12-10T13:28:22;8.10;;;6.28;;
12476;SDS011;6303;51.504;6.300;2022-12-10T13:33:48;9.35;;;6.63;;
12476;SDS011;6303;51.504;6.300;2022-12-10T13:36:24;8.90;;;6.50;;
12476;SDS011;6303;51.504;6.300;2022-12-10T13:39:12;9.02;;;6.97;;
12476;SDS011;6303;51.504;6.300;2022-12-10T13:45:24;7.63;;;6.53;;
12476;SDS011;6303;51.504;6.300;2022-12-10T13:50:56;9.50;;;7.13;;
12476;SDS011;6303;51.504;6.300;2022-12-10T13:53:39;10.10;;;7.30;;
12476;SDS011;6303;51.504;6.300;2022-12-10T13:56:13;9.00;;;7.05;;
12476;SDS011;6303;51.504;6.300;2022-12-10T13:58:49;9.45;;;7.78;;
12476;SDS011;6303;51.504;6.300;2022-12-10T14:01:28;8.48;;;6.97;;
12476;SDS011;6303;51.504;6.300;2022-12-10T14:04:02;9.35;;;7.22;;
12476;SDS011;6303;51.504;6.300;2022-12-10T14:06:52;9.40;;;7.15;;
12476;SDS011;6303;51.504;6.300;2022-12-10T14:09:21;9.25;;;7.32;;
12476;SDS011;6303;51.504;6.300;2022-12-10T14:11:54;8.98;;;7.75;;
12476;SDS011;6303;51.504;6.300;2022-12-10T14:14:25;9.40;;;7.32;;
12476;SDS011;6303;51.504;6.300;2022-12-10T14:16:59;8.95;;;7.20;;
12476;SDS011;6303;51.504;6.300;2022-12-10T14:19:27;8.27;;;7.07;;
12476;SDS011;6303;51.504;6.300;2022-12-10T14:21:55;9.60;;;8.20;;
12476;SDS011;6303;51.504;6.300;2022-12-10T14:24:26;10.82;;;8.50;;
12476;SDS011;6303;51.504;6.300;2022-12-10T14:27:01;10.70;;;8.10;;
12476;SDS011;6303;51.504;6.300;2022-12-10T14:29:35;8.23;;;6.93;;
12476;SDS011;6303;51.504;6.300;2022-12-10T14:32:02;9.25;;;6.93;;
12476;SDS011;6303;51.504;6.300;2022-12-10T14:34:30;9.48;;;7.70;;
12476;SDS011;6303;51.504;6.300;2022-12-10T14:36:58;9.20;;;7.03;;
12476;SDS011;6303;51.504;6.300;2022-12-10T14:39:30;11.27;;;7.13;;
12476;SDS011;6303;51.504;6.300;2022-12-10T14:42:02;9.73;;;7.90;;
12476;SDS011;6303;51.504;6.300;2022-12-10T14:44:31;11.27;;;7.57;;
12476;SDS011;6303;51.504;6.300;2022-12-10T14:47:04;12.70;;;7.80;;
12476;SDS011;6303;51.504;6.300;2022-12-10T14:49:37;13.60;;;8.68;;
12476;SDS011;6303;51.504;6.300;2022-12-10T14:52:08;12.52;;;8.10;;
12476;SDS011;6303;51.504;6.300;2022-12-10T14:54:37;15.25;;;8.88;;
12476;SDS011;6303;51.504;6.300;2022-12-10T14:57:07;18.25;;;8.80;;
12476;SDS011;6303;51.504;6.300;2022-12-10T14:59:40;18.60;;;9.57;;
12476;SDS011;6303;51.504;6.300;2022-12-10T15:02:13;20.48;;;9.95;;
12476;SDS011;6303;51.504;6.300;2022-12-10T15:04:45;16.02;;;8.55;;
12476;SDS011;6303;51.504;6.300;2022-12-10T15:07:14;14.38;;;8.25;;
12476;SDS011;6303;51.504;6.300;2022-12-10T15:09:45;14.13;;;9.00;;
12476;SDS011;6303;51.504;6.300;2022-12-10T15:12:18;16.30;;;9.25;;
12476;SDS011;6303;51.504;6.300;2022-12-10T15:14:53;14.80;;;8.52;;
12476;SDS011;6303;51.504;6.300;2022-12-10T15:17:37;14.20;;;8.55;;
12476;SDS011;6303;51.504;6.300;2022-12-10T15:20:10;13.77;;;8.85;;
12476;SDS011;6303;51.504;6.300;2022-12-10T15:22:45;13.63;;;9.00;;
12476;SDS011;6303;51.504;6.300;2022-12-10T15:25:14;11.50;;;8.15;;
12476;SDS011;6303;51.504;6.300;2022-12-10T15:27:54;13.60;;;8.88;;
12476;SDS011;6303;51.504;6.300;2022-12-10T15:30:23;14.30;;;8.63;;
12476;SDS011;6303;51.504;6.300;2022-12-10T15:32:58;15.57;;;8.77;;
12476;SDS011;6303;51.504;6.300;2022-12-10T15:35:25;14.50;;;8.40;;
12476;SDS011;6303;51.504;6.300;2022-12-10T15:37:53;13.30;;;8.05;;
12476;SDS011;6303;51.504;6.300;2022-12-10T15:40:25;15.07;;;8.55;;